Time;durP1;ratioP1;P1;durP2;ratioP2;P2;SDS_P1;SDS_P2;PMS_P1;PMS_P2;Temp;Humidity;BMP_temperature;BMP_pressure;BME280_temperature;BME280_humidity;BME280_pressure;Samples;Min_cycle;Max_cycle;Signal;HPM_P1;HPM_P2
2023/01/14 00:02:18;;;;;;;;;;;17.10;51.50;;;;;;5074440;28;20340;-70
2023/01/14 00:04:44;;;;;;;;;;;17.10;51.50;;;;;;5075320;28;20306;-70
2023/01/14 00:07:09;;;;;;;;;;;17.10;51.50;;;;;;5075143;28;20370;-70
2023/01/14 00:09:35;;;;;;;;;;;17.10;51.50;;;;;;5075578;28;19921;-70
2023/01/14 00:12:00;;;;;;;;;;;17.10;51.50;;;;;;5075377;28;20314;-70
2023/01/14 00:14:28;;;;;;;;;;;17.00;51.50;;;;;;5074186;28;20438;-70
2023/01/14 00:16:54;;;;;;;;;;;17.00;51.60;;;;;;5073998;28;19974;-71
2023/01/14 00:19:20;;;;;;;;;;;17.00;51.60;;;;;;5073800;28;19924;-69
2023/01/14 00:21:46;;;;;;;;;;;17.00;51.70;;;;;;5074256;28;19924;-70
2023/01/14 00:24:12;;;;;;;;;;;16.90;51.70;;;;;;5075021;28;19921;-71
2023/01/14 00:26:38;;;;;;;;;;;16.90;51.80;;;;;;5074903;28;19925;-70
2023/01/14 00:29:03;;;;;;;;;;;16.90;51.90;;;;;;5073970;28;20059;-70
2023/01/14 00:31:29;;;;;;;;;;;16.90;51.90;;;;;;5073661;28;19921;-70
2023/01/14 00:33:56;;;;;;;;;;;16.90;52.00;;;;;;5073858;28;20011;-70
2023/01/14 00:36:23;;;;;;;;;;;16.80;52.80;;;;;;5073568;28;19920;-70
2023/01/14 00:38:48;;;;;;;;;;;16.80;52.10;;;;;;5073536;28;19920;-70
2023/01/14 00:41:16;;;;;;;;;;;16.80;52.20;;;;;;5073699;28;20398;-70
2023/01/14 00:43:43;;;;;;;;;;;16.70;52.20;;;;;;5073671;28;19927;-70
2023/01/14 00:46:11;;;;;;;;;;;16.70;52.30;;;;;;5073353;28;19929;-70
2023/01/14 00:48:37;;;;;;;;;;;16.70;52.30;;;;;;5073158;28;19998;-70
2023/01/14 00:51:03;;;;;;;;;;;16.70;52.40;;;;;;5074551;28;19924;-70
2023/01/14 00:53:29;;;;;;;;;;;16.70;52.40;;;;;;5073517;28;20481;-70
2023/01/14 00:55:55;;;;;;;;;;;16.60;52.40;;;;;;5073522;28;19921;-70
2023/01/14 00:58:24;;;;;;;;;;;16.60;52.50;;;;;;5056621;28;20344;-70
2023/01/14 01:00:51;;;;;;;;;;;16.60;52.50;;;;;;5073286;28;19927;-69
2023/01/14 01:03:16;;;;;;;;;;;16.60;52.60;;;;;;5073096;28;19927;-70
2023/01/14 01:05:42;;;;;;;;;;;16.60;52.60;;;;;;5072654;28;19925;-70
2023/01/14 01:08:10;;;;;;;;;;;16.60;52.70;;;;;;5072885;28;20493;-69
2023/01/14 01:10:36;;;;;;;;;;;16.60;52.70;;;;;;5072947;28;20349;-69
2023/01/14 01:13:02;;;;;;;;;;;16.60;52.70;;;;;;5074208;28;19921;-70
2023/01/14 01:15:31;;;;;;;;;;;16.60;52.80;;;;;;5073184;28;20391;-70
2023/01/14 01:17:56;;;;;;;;;;;16.50;52.80;;;;;;5074136;28;19983;-70
2023/01/14 01:20:22;;;;;;;;;;;16.50;52.80;;;;;;5072939;28;19960;-70
2023/01/14 01:22:47;;;;;;;;;;;16.50;52.80;;;;;;5072741;28;19971;-70
2023/01/14 01:25:13;;;;;;;;;;;16.50;52.80;;;;;;5074032;28;19971;-70
2023/01/14 01:27:38;;;;;;;;;;;16.50;52.80;;;;;;5072844;28;19920;-70
2023/01/14 01:30:04;;;;;;;;;;;16.50;52.80;;;;;;5072747;28;19969;-71
2023/01/14 01:32:30;;;;;;;;;;;16.50;52.90;;;;;;5072483;28;19955;-70
2023/01/14 01:34:55;;;;;;;;;;;16.50;52.90;;;;;;5072671;28;19920;-70
2023/01/14 01:37:21;;;;;;;;;;;16.50;52.90;;;;;;5072646;28;19928;-70
2023/01/14 01:39:46;;;;;;;;;;;16.50;52.90;;;;;;5073701;28;19926;-70
2023/01/14 01:42:12;;;;;;;;;;;16.50;53.00;;;;;;5072537;28;19927;-69
2023/01/14 01:47:23;;;;;;;;;;;16.50;53.00;;;;;;5130803;27;20010;-68
2023/01/14 01:49:48;;;;;;;;;;;16.40;52.90;;;;;;5129519;28;20091;-67
2023/01/14 01:52:16;;;;;;;;;;;16.40;53.00;;;;;;5129398;28;19919;-68
2023/01/14 01:54:45;;;;;;;;;;;16.50;53.10;;;;;;5129946;28;20316;-68
2023/01/14 01:57:11;;;;;;;;;;;16.50;53.10;;;;;;5129515;28;20415;-68
2023/01/14 01:59:39;;;;;;;;;;;16.40;53.00;;;;;;5129602;28;19980;-68
2023/01/14 02:02:04;;;;;;;;;;;16.40;53.00;;;;;;5129334;28;19966;-68
2023/01/14 02:04:30;;;;;;;;;;;16.40;53.10;;;;;;5129473;28;19954;-68
2023/01/14 02:06:56;;;;;;;;;;;16.40;53.10;;;;;;5129029;28;19927;-68
2023/01/14 02:09:21;;;;;;;;;;;16.40;53.10;;;;;;5130566;27;19927;-68
2023/01/14 02:12:06;;;;;;;;;;;16.40;53.20;;;;;;5129327;28;20282;-67
2023/01/14 02:14:52;;;;;;;;;;;16.40;53.20;;;;;;5129155;28;19920;-68
2023/01/14 02:17:25;;;;;;;;;;;16.40;53.20;;;;;;5128682;28;19920;-69
2023/01/14 02:31:19;;;;;;;;;;;16.30;53.10;;;;;;5130810;27;19985;-67
2023/01/14 02:33:54;;;;;;;;;;;16.30;53.10;;;;;;5129306;28;19962;-68
2023/01/14 02:36:26;;;;;;;;;;;16.30;53.10;;;;;;5131218;27;19976;-67
2023/01/14 02:39:00;;;;;;;;;;;16.30;53.10;;;;;;5130735;27;20301;-67
2023/01/14 02:44:21;;;;;;;;;;;16.30;53.10;;;;;;5129322;28;19920;-68
2023/01/14 02:49:27;;;;;;;;;;;16.30;53.20;;;;;;5089769;28;20367;-68
2023/01/14 02:51:55;;;;;;;;;;;16.30;53.20;;;;;;5088890;28;19921;-68
2023/01/14 02:54:21;;;;;;;;;;;16.30;53.20;;;;;;5088774;28;19924;-68
2023/01/14 02:56:47;;;;;;;;;;;16.30;53.20;;;;;;5105978;28;20260;-68
2023/01/14 03:02:13;;;;;;;;;;;16.30;53.20;;;;;;5110327;27;19918;-67
2023/01/14 03:07:27;;;;;;;;;;;16.20;53.20;;;;;;5089890;28;19919;-68
2023/01/14 03:10:01;;;;;;;;;;;16.20;53.20;;;;;;5088531;28;20371;-68
2023/01/14 03:15:16;;;;;;;;;;;16.20;53.20;;;;;;5110239;27;19912;-69
2023/01/14 03:17:45;;;;;;;;;;;16.20;53.30;;;;;;5109209;28;20023;-68
2023/01/14 03:20:16;;;;;;;;;;;16.20;53.30;;;;;;5109168;28;20001;-69
2023/01/14 03:22:51;;;;;;;;;;;16.20;53.20;;;;;;5109210;28;19920;-68
2023/01/14 03:25:17;;;;;;;;;;;16.20;53.20;;;;;;5108747;28;20290;-68
2023/01/14 03:27:45;;;;;;;;;;;16.10;53.20;;;;;;5109122;28;19920;-68
2023/01/14 03:30:12;;;;;;;;;;;16.20;53.30;;;;;;5108705;28;20320;-68
2023/01/14 03:32:48;;;;;;;;;;;16.20;53.30;;;;;;5109854;28;19920;-67
2023/01/14 03:35:17;;;;;;;;;;;16.20;53.30;;;;;;5108536;28;19935;-68
2023/01/14 03:37:45;;;;;;;;;;;16.20;54.00;;;;;;5110084;28;20022;-67
2023/01/14 03:40:12;;;;;;;;;;;16.10;53.20;;;;;;5109930;28;20290;-68
2023/01/14 03:42:41;;;;;;;;;;;16.10;53.20;;;;;;5108841;28;19920;-67
2023/01/14 03:45:24;;;;;;;;;;;16.10;53.20;;;;;;5108554;28;19920;-68
2023/01/14 03:47:50;;;;;;;;;;;16.10;53.30;;;;;;5108487;28;20441;-67
2023/01/14 03:50:18;;;;;;;;;;;16.10;53.30;;;;;;5108284;28;20015;-67
2023/01/14 03:58:14;;;;;;;;;;;16.10;53.40;;;;;;5110313;27;19912;-68
2023/01/14 04:00:44;;;;;;;;;;;16.10;53.30;;;;;;5109175;28;19920;-67
2023/01/14 04:03:11;;;;;;;;;;;16.10;53.40;;;;;;5108924;28;20018;-68
2023/01/14 04:05:37;;;;;;;;;;;16.00;53.30;;;;;;5108855;28;19920;-67
2023/01/14 04:08:04;;;;;;;;;;;16.10;53.40;;;;;;5109148;28;19930;-68
2023/01/14 04:10:29;;;;;;;;;;;16.10;53.40;;;;;;5109901;28;19920;-68
2023/01/14 04:15:40;;;;;;;;;;;16.00;53.30;;;;;;5108308;28;19920;-67
2023/01/14 04:18:06;;;;;;;;;;;16.10;53.40;;;;;;5108640;28;19923;-67
2023/01/14 04:20:31;;;;;;;;;;;16.00;53.40;;;;;;5108884;28;19943;-67
2023/01/14 04:22:57;;;;;;;;;;;16.00;53.40;;;;;;5108788;28;20322;-68
2023/01/14 04:25:23;;;;;;;;;;;16.00;53.40;;;;;;5108385;28;19924;-67
2023/01/14 04:27:48;;;;;;;;;;;16.00;53.40;;;;;;5108748;28;19952;-68
2023/01/14 04:30:14;;;;;;;;;;;16.00;53.40;;;;;;5108454;28;19920;-68
2023/01/14 04:32:39;;;;;;;;;;;16.00;53.40;;;;;;5108601;28;19927;-67
2023/01/14 04:35:05;;;;;;;;;;;16.00;53.40;;;;;;5108332;28;19920;-68
2023/01/14 04:37:30;;;;;;;;;;;15.90;53.30;;;;;;5108122;28;20006;-68
2023/01/14 04:39:56;;;;;;;;;;;15.90;53.30;;;;;;5109409;28;19924;-68
2023/01/14 04:42:30;;;;;;;;;;;15.90;54.10;;;;;;5108432;28;19920;-68
2023/01/14 04:44:57;;;;;;;;;;;15.90;53.40;;;;;;5108050;28;20426;-68
2023/01/14 04:47:23;;;;;;;;;;;15.90;53.30;;;;;;5108341;28;20042;-67
2023/01/14 04:49:49;;;;;;;;;;;15.90;53.40;;;;;;5109377;28;20268;-68
2023/01/14 04:52:18;;;;;;;;;;;15.90;53.40;;;;;;5108261;28;20002;-68
2023/01/14 04:54:43;;;;;;;;;;;15.90;53.50;;;;;;5107927;28;19924;-68
2023/01/14 04:57:09;;;;;;;;;;;15.90;53.50;;;;;;5107652;28;19924;-68
2023/01/14 04:59:35;;;;;;;;;;;15.90;53.40;;;;;;5107839;28;19993;-68
2023/01/14 05:02:00;;;;;;;;;;;15.80;53.40;;;;;;5108151;28;20050;-68
2023/01/14 05:04:26;;;;;;;;;;;15.90;53.40;;;;;;5107835;28;19957;-68
2023/01/14 05:06:52;;;;;;;;;;;15.90;53.40;;;;;;5107909;28;19920;-68
2023/01/14 05:09:18;;;;;;;;;;;15.90;53.50;;;;;;5095431;28;19927;-68
2023/01/14 05:11:43;;;;;;;;;;;15.90;53.40;;;;;;5094065;28;19973;-67
2023/01/14 05:14:09;;;;;;;;;;;15.90;53.50;;;;;;5094294;28;19942;-70
2023/01/14 05:16:34;;;;;;;;;;;15.80;53.40;;;;;;5094091;28;20442;-69
2023/01/14 05:19:00;;;;;;;;;;;15.80;53.50;;;;;;5093893;28;20318;-70
2023/01/14 05:21:25;;;;;;;;;;;15.80;53.50;;;;;;5095196;28;20010;-70
2023/01/14 05:23:51;;;;;;;;;;;15.80;53.50;;;;;;5093790;28;19927;-70
2023/01/14 05:26:16;;;;;;;;;;;15.80;53.50;;;;;;5094122;28;19927;-69
2023/01/14 05:28:42;;;;;;;;;;;15.80;53.60;;;;;;5094045;28;20378;-69
2023/01/14 05:31:08;;;;;;;;;;;15.80;53.60;;;;;;5093685;28;20421;-69
2023/01/14 05:33:33;;;;;;;;;;;15.80;53.60;;;;;;5094907;28;19956;-70
2023/01/14 05:35:59;;;;;;;;;;;15.80;53.60;;;;;;5093902;28;19921;-70
2023/01/14 05:38:25;;;;;;;;;;;15.80;53.50;;;;;;5093474;28;19920;-70
2023/01/14 05:40:51;;;;;;;;;;;15.80;53.60;;;;;;5094778;28;19920;-70
2023/01/14 05:46:05;;;;;;;;;;;15.70;53.50;;;;;;5094558;28;19920;-70
2023/01/14 05:48:31;;;;;;;;;;;15.70;53.50;;;;;;5094558;28;20260;-70
2023/01/14 05:50:57;;;;;;;;;;;15.80;53.60;;;;;;5094721;28;19950;-70
2023/01/14 05:53:24;;;;;;;;;;;15.70;53.50;;;;;;5093482;28;20378;-70
2023/01/14 05:55:49;;;;;;;;;;;15.70;53.50;;;;;;5095205;28;20361;-70
2023/01/14 05:58:15;;;;;;;;;;;15.70;53.60;;;;;;5096948;28;19920;-70
2023/01/14 06:06:24;;;;;;;;;;;15.70;53.60;;;;;;5114440;28;19967;-70
2023/01/14 06:11:34;;;;;;;;;;;15.70;53.60;;;;;;5126781;27;1871219;-68
2023/01/14 06:14:00;;;;;;;;;;;15.60;53.60;;;;;;5174358;27;19966;-68
2023/01/14 06:16:27;;;;;;;;;;;15.70;53.60;;;;;;5174733;27;20005;-68
2023/01/14 06:18:53;;;;;;;;;;;15.70;53.70;;;;;;5174762;27;19987;-67
2023/01/14 06:21:20;;;;;;;;;;;15.60;53.60;;;;;;5174567;27;20364;-68
2023/01/14 06:23:46;;;;;;;;;;;15.60;53.60;;;;;;5174245;27;19925;-68
2023/01/14 06:26:12;;;;;;;;;;;15.60;53.60;;;;;;5174504;27;20005;-68
2023/01/14 06:28:42;;;;;;;;;;;15.60;53.60;;;;;;5174463;27;19969;-68
2023/01/14 06:31:18;;;;;;;;;;;15.70;53.60;;;;;;5193273;27;20005;-68
2023/01/14 06:33:45;;;;;;;;;;;15.60;53.60;;;;;;5192800;27;19925;-67
2023/01/14 06:36:11;;;;;;;;;;;15.60;53.60;;;;;;5173952;27;19918;-68
2023/01/14 06:38:37;;;;;;;;;;;15.60;53.60;;;;;;5174253;27;19933;-67
2023/01/14 06:41:07;;;;;;;;;;;15.60;53.60;;;;;;5192652;27;19918;-68
2023/01/14 06:43:33;;;;;;;;;;;15.60;53.60;;;;;;5173907;27;19919;-68
2023/01/14 06:45:59;;;;;;;;;;;15.60;53.60;;;;;;5192558;27;19919;-68
2023/01/14 06:48:25;;;;;;;;;;;15.60;53.70;;;;;;5192685;27;19946;-68
2023/01/14 06:50:51;;;;;;;;;;;15.60;53.70;;;;;;5192588;27;19929;-67
2023/01/14 06:53:17;;;;;;;;;;;15.60;53.70;;;;;;5174060;27;19919;-67
2023/01/14 06:55:42;;;;;;;;;;;15.50;53.70;;;;;;5192513;27;19925;-67
2023/01/14 06:58:08;;;;;;;;;;;15.60;53.70;;;;;;5192380;27;19926;-67
2023/01/14 07:00:33;;;;;;;;;;;15.50;53.70;;;;;;5173427;27;19918;-68
2023/01/14 07:03:02;;;;;;;;;;;15.50;53.70;;;;;;5173646;27;20239;-67
2023/01/14 07:05:27;;;;;;;;;;;15.50;53.70;;;;;;5192556;27;20005;-67
2023/01/14 07:07:53;;;;;;;;;;;15.50;53.70;;;;;;5192219;27;20373;-68
2023/01/14 07:10:18;;;;;;;;;;;15.50;53.70;;;;;;5173022;27;20009;-67
2023/01/14 07:12:45;;;;;;;;;;;15.50;53.70;;;;;;5191984;27;20013;-68
2023/01/14 07:15:11;;;;;;;;;;;15.50;53.80;;;;;;5173608;27;19964;-68
2023/01/14 07:17:37;;;;;;;;;;;15.60;53.80;;;;;;5173170;27;19918;-68
2023/01/14 07:20:02;;;;;;;;;;;15.50;53.80;;;;;;5192073;27;19919;-67
2023/01/14 07:22:31;;;;;;;;;;;15.50;53.80;;;;;;5161700;27;20384;-67
2023/01/14 07:24:56;;;;;;;;;;;15.50;53.80;;;;;;5159236;27;19919;-67
2023/01/14 07:27:22;;;;;;;;;;;15.50;53.80;;;;;;5159416;27;19925;-68
2023/01/14 07:29:47;;;;;;;;;;;15.50;53.80;;;;;;5159270;27;20349;-67
2023/01/14 07:32:13;;;;;;;;;;;15.50;53.80;;;;;;5154652;27;19967;-68
2023/01/14 07:34:38;;;;;;;;;;;15.50;53.80;;;;;;5157026;27;20013;-70
2023/01/14 07:37:04;;;;;;;;;;;15.50;53.80;;;;;;5138376;27;19923;-69
2023/01/14 07:39:29;;;;;;;;;;;15.50;53.80;;;;;;5138322;27;20041;-69
2023/01/14 07:41:55;;;;;;;;;;;15.50;53.90;;;;;;5138048;27;19919;-69
2023/01/14 07:44:23;;;;;;;;;;;15.50;53.90;;;;;;5138024;27;19919;-70
2023/01/14 07:46:51;;;;;;;;;;;15.40;53.80;;;;;;5138034;27;19926;-69
2023/01/14 07:49:19;;;;;;;;;;;15.40;53.80;;;;;;5156384;27;19919;-70
2023/01/14 07:51:45;;;;;;;;;;;15.40;53.80;;;;;;5138293;27;19930;-69
2023/01/14 07:54:10;;;;;;;;;;;15.40;53.80;;;;;;5156520;27;20369;-70
2023/01/14 07:56:36;;;;;;;;;;;15.40;53.80;;;;;;5138165;27;20384;-69
2023/01/14 07:59:01;;;;;;;;;;;15.40;53.80;;;;;;5137788;27;19926;-69
2023/01/14 08:01:27;;;;;;;;;;;15.40;53.80;;;;;;5137959;27;19972;-69
2023/01/14 08:03:57;;;;;;;;;;;15.40;53.80;;;;;;5156355;27;20014;-70
2023/01/14 08:06:22;;;;;;;;;;;15.40;53.80;;;;;;5156358;27;19954;-69
2023/01/14 08:08:48;;;;;;;;;;;15.40;53.80;;;;;;5137535;27;19954;-70
2023/01/14 08:11:13;;;;;;;;;;;15.40;53.80;;;;;;5155620;27;19966;-70
2023/01/14 08:13:39;;;;;;;;;;;15.40;53.80;;;;;;5137761;27;19966;-70
2023/01/14 08:16:04;;;;;;;;;;;15.40;53.90;;;;;;5156078;27;20301;-70
2023/01/14 08:18:31;;;;;;;;;;;15.40;53.80;;;;;;5155830;27;19926;-70
2023/01/14 08:20:59;;;;;;;;;;;15.30;53.80;;;;;;5156073;27;19919;-69
2023/01/14 08:23:24;;;;;;;;;;;15.40;53.80;;;;;;5137463;27;19930;-70
2023/01/14 08:25:50;;;;;;;;;;;15.40;53.80;;;;;;5137527;27;19919;-70
2023/01/14 08:28:15;;;;;;;;;;;15.40;53.90;;;;;;5156080;27;20433;-70
2023/01/14 08:30:41;;;;;;;;;;;15.40;53.80;;;;;;5136985;27;19930;-70
2023/01/14 08:33:07;;;;;;;;;;;15.40;53.80;;;;;;5166430;27;19922;-69
2023/01/14 08:35:33;;;;;;;;;;;15.40;53.80;;;;;;5157970;27;19918;-69
2023/01/14 08:37:58;;;;;;;;;;;15.40;53.90;;;;;;5157658;27;20350;-70
2023/01/14 08:40:24;;;;;;;;;;;15.40;53.80;;;;;;5176415;27;19967;-70
2023/01/14 08:42:49;;;;;;;;;;;15.40;53.80;;;;;;5157979;27;20013;-70
2023/01/14 08:45:15;;;;;;;;;;;15.40;53.90;;;;;;5176178;27;20281;-69
2023/01/14 08:47:40;;;;;;;;;;;15.40;53.90;;;;;;5176190;27;19918;-70
2023/01/14 08:50:06;;;;;;;;;;;15.30;53.80;;;;;;5157290;27;19930;-69
2023/01/14 08:52:32;;;;;;;;;;;15.30;53.80;;;;;;5157433;27;19925;-70
2023/01/14 08:55:00;;;;;;;;;;;15.30;53.90;;;;;;5157634;27;19962;-70
2023/01/14 08:57:27;;;;;;;;;;;15.30;53.90;;;;;;5175966;27;19919;-70
2023/01/14 08:59:52;;;;;;;;;;;15.30;53.90;;;;;;5175909;27;19919;-70
2023/01/14 09:02:18;;;;;;;;;;;15.30;54.00;;;;;;5157521;27;20329;-70
2023/01/14 09:04:43;;;;;;;;;;;15.40;54.00;;;;;;5176035;27;20018;-70
2023/01/14 09:18:13;;;;;;;;;;;15.30;54.00;;;;;;5157152;27;19982;-70
2023/01/14 09:20:40;;;;;;;;;;;15.30;54.00;;;;;;5156907;27;19919;-70
2023/01/14 09:23:06;;;;;;;;;;;15.30;54.00;;;;;;5175639;27;19928;-70
2023/01/14 09:25:32;;;;;;;;;;;15.30;54.10;;;;;;5175359;27;19919;-70
2023/01/14 09:27:57;;;;;;;;;;;15.30;54.10;;;;;;5157188;27;20014;-69
2023/01/14 09:30:23;;;;;;;;;;;15.30;54.10;;;;;;5156638;27;20002;-71
2023/01/14 09:32:49;;;;;;;;;;;15.30;54.10;;;;;;5147427;27;19976;-70
2023/01/14 09:35:14;;;;;;;;;;;15.30;54.10;;;;;;5154420;27;19930;-70
2023/01/14 09:37:40;;;;;;;;;;;15.30;54.10;;;;;;5136144;27;19920;-70
2023/01/14 09:40:06;;;;;;;;;;;15.30;54.10;;;;;;5154426;27;19919;-70
2023/01/14 09:42:34;;;;;;;;;;;15.20;54.10;;;;;;5136052;27;20392;-70
2023/01/14 09:45:19;;;;;;;;;;;15.30;54.20;;;;;;5135817;27;19925;-70
2023/01/14 09:47:45;;;;;;;;;;;15.20;54.20;;;;;;5135856;27;20377;-70
2023/01/14 09:50:14;;;;;;;;;;;15.20;54.20;;;;;;5135667;27;19926;-70
2023/01/14 09:55:39;;;;;;;;;;;15.20;54.20;;;;;;5111035;27;19938;-68
2023/01/14 09:58:18;;;;;;;;;;;15.20;54.20;;;;;;5109102;28;19927;-68
2023/01/14 10:06:30;;;;;;;;;;;15.20;54.30;;;;;;5130875;27;20014;-68
2023/01/14 10:09:02;;;;;;;;;;;15.20;54.30;;;;;;5129752;28;20366;-68
2023/01/14 10:11:29;;;;;;;;;;;15.20;54.30;;;;;;5129804;28;20316;-68
2023/01/14 10:14:14;;;;;;;;;;;15.20;54.40;;;;;;5129616;28;19931;-68
2023/01/14 10:16:42;;;;;;;;;;;15.20;54.40;;;;;;5129219;28;19927;-67
2023/01/14 10:19:18;;;;;;;;;;;15.20;54.40;;;;;;5130672;27;19920;-67
2023/01/14 10:21:46;;;;;;;;;;;15.20;54.40;;;;;;5129552;28;19919;-67
2023/01/14 10:24:13;;;;;;;;;;;15.20;54.40;;;;;;5129089;28;19973;-67
2023/01/14 10:26:39;;;;;;;;;;;15.20;54.40;;;;;;5130493;27;20023;-67
2023/01/14 10:29:24;;;;;;;;;;;15.20;54.40;;;;;;5130537;27;19963;-68
2023/01/14 10:31:53;;;;;;;;;;;15.20;54.50;;;;;;5129053;28;19919;-68
2023/01/14 10:34:25;;;;;;;;;;;15.20;54.50;;;;;;5129251;28;19919;-67
2023/01/14 10:36:51;;;;;;;;;;;15.20;54.50;;;;;;5128883;28;20306;-68
2023/01/14 10:39:17;;;;;;;;;;;15.20;54.50;;;;;;5129162;28;19919;-68
2023/01/14 10:41:50;;;;;;;;;;;15.10;54.50;;;;;;5120817;27;20328;-68
2023/01/14 10:44:23;;;;;;;;;;;15.20;54.60;;;;;;5123225;28;19927;-68
2023/01/14 10:46:51;;;;;;;;;;;15.20;54.60;;;;;;5112276;28;19920;-68
2023/01/14 10:52:21;;;;;;;;;;;15.40;55.30;;;;;;5107346;27;19922;-69
2023/01/14 10:57:52;;;;;;;;;;;16.60;53.70;;;;;;5088000;28;19930;-71
2023/01/14 11:00:27;;;;;;;;;;;17.20;52.50;;;;;;5086030;28;20528;-67
2023/01/14 11:02:53;;;;;;;;;;;17.80;51.60;;;;;;5084463;28;19920;-71
2023/01/14 11:05:25;;;;;;;;;;;18.40;50.50;;;;;;5086231;28;20016;-69
2023/01/14 11:07:51;;;;;;;;;;;19.10;49.50;;;;;;5070394;28;19920;-69
2023/01/14 11:10:20;;;;;;;;;;;19.80;48.20;;;;;;5087236;28;20015;-70
2023/01/14 11:12:45;;;;;;;;;;;20.60;46.90;;;;;;5086997;28;19982;-69
2023/01/14 11:15:31;;;;;;;;;;;21.30;45.50;;;;;;5087108;28;19928;-69
2023/01/14 11:18:14;;;;;;;;;;;21.90;44.30;;;;;;5088931;28;19920;-70
2023/01/14 11:20:40;;;;;;;;;;;22.70;43.30;;;;;;5086384;28;20082;-70
2023/01/14 11:23:13;;;;;;;;;;;23.20;42.30;;;;;;5088019;28;19999;-70
2023/01/14 11:25:41;;;;;;;;;;;23.60;41.40;;;;;;5087547;28;19920;-70
2023/01/14 11:28:07;;;;;;;;;;;23.90;40.90;;;;;;5086394;28;20015;-73
2023/01/14 11:30:33;;;;;;;;;;;24.20;40.50;;;;;;5087939;28;20007;-70
2023/01/14 11:32:59;;;;;;;;;;;24.30;40.20;;;;;;5086568;28;20034;-69
2023/01/14 11:35:28;;;;;;;;;;;24.20;40.20;;;;;;5086888;28;19921;-70
2023/01/14 11:37:54;;;;;;;;;;;24.10;40.10;;;;;;5088983;28;19924;-72
2023/01/14 11:40:22;;;;;;;;;;;23.90;40.40;;;;;;5087558;28;20337;-71
2023/01/14 11:42:47;;;;;;;;;;;23.60;40.80;;;;;;5085840;28;20008;-68
2023/01/14 11:47:55;;;;;;;;;;;23.00;41.30;;;;;;5109485;27;19919;-71
2023/01/14 11:50:25;;;;;;;;;;;22.60;41.80;;;;;;5112906;28;19919;-71
2023/01/14 11:55:41;;;;;;;;;;;21.70;42.70;;;;;;5140165;27;19918;-71
2023/01/14 11:58:14;;;;;;;;;;;21.20;43.40;;;;;;5138745;27;19920;-72
2023/01/14 12:00:40;;;;;;;;;;;21.00;44.10;;;;;;5136612;27;19930;-70
2023/01/14 12:03:09;;;;;;;;;;;20.70;44.70;;;;;;5138066;27;19920;-68
2023/01/14 12:05:35;;;;;;;;;;;20.30;45.10;;;;;;5131928;27;19920;-69
2023/01/14 12:08:05;;;;;;;;;;;20.10;45.90;;;;;;5132899;27;20391;-68
2023/01/14 12:10:38;;;;;;;;;;;20.00;46.40;;;;;;5138659;27;19920;-70
2023/01/14 12:18:30;;;;;;;;;;;19.70;47.10;;;;;;5110355;27;19919;-69
2023/01/14 12:20:57;;;;;;;;;;;19.60;47.20;;;;;;5098285;28;19946;-70
2023/01/14 12:23:24;;;;;;;;;;;19.50;47.30;;;;;;5137177;27;20363;-70
2023/01/14 12:25:50;;;;;;;;;;;19.40;47.40;;;;;;5096596;28;19946;-69
2023/01/14 12:28:22;;;;;;;;;;;19.30;47.60;;;;;;5088828;28;20377;-69
2023/01/14 12:31:08;;;;;;;;;;;19.10;47.70;;;;;;5088784;28;20465;-69
2023/01/14 12:33:43;;;;;;;;;;;19.10;47.90;;;;;;5088488;28;19959;-69
2023/01/14 12:36:14;;;;;;;;;;;19.00;48.00;;;;;;5088136;28;19973;-70
2023/01/14 12:47:06;;;;;;;;;;;18.80;48.20;;;;;;5088249;28;19928;-70
2023/01/14 12:49:32;;;;;;;;;;;18.90;48.20;;;;;;5088575;28;19920;-70
2023/01/14 12:51:59;;;;;;;;;;;18.90;48.20;;;;;;5088845;28;20334;-70
2023/01/14 12:54:27;;;;;;;;;;;18.80;48.10;;;;;;5089743;28;19920;-70
2023/01/14 12:56:54;;;;;;;;;;;18.80;48.10;;;;;;5088074;28;20042;-71
2023/01/14 13:02:02;;;;;;;;;;;18.80;48.80;;;;;;5110213;27;19937;-70
2023/01/14 13:04:48;;;;;;;;;;;18.80;48.10;;;;;;5107661;28;19919;-70
2023/01/14 13:07:19;;;;;;;;;;;18.80;48.10;;;;;;5108733;28;19920;-70
2023/01/14 13:09:47;;;;;;;;;;;18.80;48.10;;;;;;5109173;28;20003;-70
2023/01/14 13:12:17;;;;;;;;;;;18.80;48.20;;;;;;5108772;28;19973;-70
2023/01/14 13:14:51;;;;;;;;;;;18.80;48.20;;;;;;5108715;28;20370;-70
2023/01/14 13:17:18;;;;;;;;;;;18.80;48.30;;;;;;5108799;28;20393;-70
2023/01/14 13:19:49;;;;;;;;;;;18.70;48.20;;;;;;5108795;28;19926;-70
2023/01/14 13:22:34;;;;;;;;;;;18.70;48.30;;;;;;5110025;28;19920;-70
2023/01/14 13:25:01;;;;;;;;;;;18.70;48.40;;;;;;5108415;28;19920;-70
2023/01/14 13:30:34;;;;;;;;;;;18.60;48.60;;;;;;5089922;28;19913;-70
2023/01/14 13:35:41;;;;;;;;;;;18.40;48.90;;;;;;5110168;27;19945;-70
2023/01/14 13:38:18;;;;;;;;;;;18.30;49.10;;;;;;5108996;28;19920;-70
2023/01/14 13:40:49;;;;;;;;;;;18.30;49.30;;;;;;5110289;28;20371;-70
2023/01/14 13:43:18;;;;;;;;;;;18.20;49.40;;;;;;5109218;28;19967;-70
2023/01/14 13:45:49;;;;;;;;;;;18.10;49.70;;;;;;5110010;28;19974;-70
2023/01/14 13:48:18;;;;;;;;;;;18.10;49.90;;;;;;5109144;28;19989;-70
2023/01/14 13:50:44;;;;;;;;;;;18.00;50.00;;;;;;5108840;28;20285;-70
2023/01/14 13:56:00;;;;;;;;;;;17.80;50.40;;;;;;5151403;27;20016;-71
2023/01/14 14:01:26;;;;;;;;;;;17.60;50.90;;;;;;5110240;27;19944;-70
2023/01/14 14:03:56;;;;;;;;;;;17.50;51.10;;;;;;5109187;28;19920;-70
2023/01/14 14:09:22;;;;;;;;;;;17.30;51.70;;;;;;5110282;27;19938;-70
2023/01/14 14:11:53;;;;;;;;;;;17.20;51.90;;;;;;5108888;28;20145;-70
2023/01/14 14:14:24;;;;;;;;;;;17.20;52.20;;;;;;5108948;28;19923;-70
2023/01/14 14:16:53;;;;;;;;;;;17.10;52.40;;;;;;5109168;28;19920;-70
2023/01/14 14:19:22;;;;;;;;;;;17.00;52.60;;;;;;5108819;28;19920;-70
2023/01/14 14:22:07;;;;;;;;;;;17.00;52.80;;;;;;5108777;28;19924;-71
2023/01/14 14:27:15;;;;;;;;;;;16.90;53.00;;;;;;5110153;27;20415;-70
2023/01/14 14:29:43;;;;;;;;;;;16.90;53.20;;;;;;5109017;28;19924;-70
2023/01/14 14:32:13;;;;;;;;;;;16.80;53.30;;;;;;5109004;28;19927;-70
2023/01/14 14:34:42;;;;;;;;;;;16.80;53.40;;;;;;5110191;28;19973;-70
2023/01/14 14:37:16;;;;;;;;;;;16.80;53.50;;;;;;5108678;28;19945;-70
2023/01/14 14:39:42;;;;;;;;;;;16.80;53.70;;;;;;5109134;28;20371;-70
2023/01/14 14:42:11;;;;;;;;;;;16.70;53.70;;;;;;5108984;28;20015;-70
2023/01/14 14:44:37;;;;;;;;;;;16.70;53.90;;;;;;5108661;28;19920;-70
2023/01/14 14:47:23;;;;;;;;;;;16.70;53.90;;;;;;5108538;28;19924;-70
2023/01/14 14:49:48;;;;;;;;;;;16.60;54.00;;;;;;5108771;28;20370;-71
2023/01/14 14:52:18;;;;;;;;;;;16.60;54.10;;;;;;5108993;28;19931;-70
2023/01/14 14:54:44;;;;;;;;;;;16.60;54.20;;;;;;5108765;28;20366;-70
2023/01/14 14:57:14;;;;;;;;;;;16.60;54.30;;;;;;5109589;28;19920;-70
2023/01/14 14:59:40;;;;;;;;;;;16.50;54.40;;;;;;5108442;28;19930;-70
2023/01/14 15:02:23;;;;;;;;;;;16.50;54.50;;;;;;5108317;28;19920;-70
2023/01/14 15:04:50;;;;;;;;;;;16.50;54.60;;;;;;5108290;28;19920;-70
2023/01/14 15:07:16;;;;;;;;;;;16.40;54.70;;;;;;5107675;28;20016;-72
2023/01/14 15:09:44;;;;;;;;;;;16.40;54.80;;;;;;5107704;28;19927;-72
2023/01/14 15:12:16;;;;;;;;;;;16.40;54.80;;;;;;5108381;28;19927;-72
2023/01/14 15:14:43;;;;;;;;;;;16.40;55.00;;;;;;5108066;28;19927;-73
2023/01/14 15:17:15;;;;;;;;;;;16.30;55.10;;;;;;5109339;28;19924;-72
2023/01/14 15:19:41;;;;;;;;;;;16.30;55.10;;;;;;5108312;28;19920;-72
2023/01/14 15:22:07;;;;;;;;;;;16.30;55.20;;;;;;5108230;28;20252;-72
2023/01/14 15:24:33;;;;;;;;;;;16.30;55.30;;;;;;5108228;28;19924;-72
2023/01/14 15:27:02;;;;;;;;;;;16.30;55.30;;;;;;5107725;28;19932;-72
2023/01/14 15:29:29;;;;;;;;;;;16.30;55.40;;;;;;5107825;28;19920;-72
2023/01/14 15:31:55;;;;;;;;;;;16.30;55.40;;;;;;5108030;28;19930;-72
2023/01/14 15:37:21;;;;;;;;;;;16.20;55.60;;;;;;5110311;27;20278;-70
2023/01/14 15:39:47;;;;;;;;;;;16.20;55.70;;;;;;5108605;28;19922;-72
2023/01/14 15:42:16;;;;;;;;;;;16.10;55.70;;;;;;5109279;28;19966;-72
2023/01/14 15:44:43;;;;;;;;;;;16.20;55.70;;;;;;5143533;27;19920;-72
2023/01/14 15:47:08;;;;;;;;;;;16.20;55.80;;;;;;5109110;28;19927;-72
2023/01/14 15:49:34;;;;;;;;;;;16.20;55.80;;;;;;5108758;28;20375;-72
2023/01/14 15:52:05;;;;;;;;;;;16.20;55.80;;;;;;5109047;28;19920;-72
2023/01/14 16:02:47;;;;;;;;;;;16.10;56.00;;;;;;5125386;27;1924278;-70
2023/01/14 16:08:17;;;;;;;;;;;16.10;56.00;;;;;;5110240;27;19912;-70
2023/01/14 16:10:43;;;;;;;;;;;16.10;56.10;;;;;;5108853;28;19920;-70
2023/01/14 16:13:15;;;;;;;;;;;16.10;56.10;;;;;;5110404;28;19990;-70
2023/01/14 16:15:44;;;;;;;;;;;16.10;56.20;;;;;;5108106;28;19924;-70
2023/01/14 16:18:15;;;;;;;;;;;16.10;56.30;;;;;;5108705;28;19973;-70
2023/01/14 16:20:41;;;;;;;;;;;16.10;56.30;;;;;;5108981;28;20442;-70
2023/01/14 16:23:07;;;;;;;;;;;16.10;56.30;;;;;;5109084;28;19982;-70
2023/01/14 16:25:33;;;;;;;;;;;16.10;56.40;;;;;;5108472;28;20379;-70
2023/01/14 16:27:58;;;;;;;;;;;16.00;56.40;;;;;;5108615;28;19924;-73